Siletz, OR (97380)

9:25 PM PDT on August 31, 2016 (GMT -0700)
Siletz | | Change Station

Elev 256 ft 44.73 °N, 123.91 °W | Updated 4 seconds ago

Mostly Cloudy
Mostly Cloudy
59.9 °F
Feels Like 59.9 °F
N
0.0
Wind Variable Wind from South
Gusts 0.0 mph

Today
High -- | Low -- °F
--% Chance of Precip.
Yesterday
High -- | Low -- °F
Precip. -- in
Pressure 30.10 in
Visibility 7.0 miles
Clouds Scattered Clouds 1700 ft
Mostly Cloudy 2700 ft
Mostly Cloudy 3400 ft
Dew Point 58 °F
Humidity 92%
Rainfall 0.11 in
Snow Depth Not available.
6:37 AM 7:53 PM
Waning Crescent, 0% visible
METAR KONP 010415Z AUTO 00000KT 7SM SCT017 BKN027 BKN034 15/14 A3010 RMK AO2
Pressure 30.10 in
Visibility 7.0 miles
Clouds Scattered Clouds 1700 ft
Mostly Cloudy 2700 ft
Mostly Cloudy 3400 ft
Dew Point 58 °F
Humidity 92%
Rainfall 0.11 in
Snow Depth Not available.
6:37 AM 7:53 PM
Waning Crescent, 0% visible
METAR KONP 010415Z AUTO 00000KT 7SM SCT017 BKN027 BKN034 15/14 A3010 RMK AO2

10-Day Weather Forecast

Almanac

Astronomy

Aug. 31, 2016 Rise Set
Actual Time
Civil Twilight
Nautical Twilight
Astronomical Twilight
Moon
Length of Visible Light
Length of Day
Tomorrow will be .
, % of the Moon is Illuminated

Today's Extremes

State Highs State Lows

Community

WunderPhotos

Upload Photos

1,936,311 photos uploaded!

WunderBlog® & News

Nearby

Air Quality

  Air Quality AQ Index Pollutant
Not available.

Snow Depth

Station Depth Elevation

Earthquake Activity

City Distance Mag. Time & Date
Minimum magnitude displayed is 2.5.

Coastal Water Temperatures

Place Temperature

Stations

Nearby Weather Stations

Station Location Temp. Windchill Dew Point Humidity Wind Precip. Elev Updated Type
                   

Watches & Warnings

There are currently no watches in effect.